LROP - BUCURESTI / HENRI COANDA

Compiled: 21:28:59 on 19/01/2018

Latest METAR/SPECI Reports

METAR LROP 192100Z VRB02KT CAVOK 03/00 Q1011 NOSIG=

Previous reports

METAR LROP 192030Z 00000KT CAVOK 03/00 Q1011 NOSIG=
METAR LROP 192000Z 23004KT CAVOK 03/00 Q1010 NOSIG=
METAR LROP 191930Z 26003KT 230V310 CAVOK 04/00 Q1010 NOSIG=
METAR LROP 191900Z 23005KT CAVOK 03/00 Q1010 NOSIG=

Latest TAF report

TAF LROP 191700Z 1918/2018 25007KT CAVOK PROB30 TEMPO 2003/2006 5000 BR BECMG 2010/2012 06010KT 5000 -RA BR BKN015 BKN035 TEMPO 2012/2016 3000 RA BR BKN010 OVC030 BECMG 2016/2018 3000 SNRA BKN010 OVC025=

Valid WARNINGS

No valid warnings for LROP